Alcoa, Tennessee
Current Conditions -  °F | °C
As of 8:53 PM on Friday 19 Dec 2014 (Local Time) from KTYS Reporting Station
Overcast Overcast  
Wind Chill: 33°   Ceiling: 18000
Heat Index: 39°   Visibility: 10mi
Dew Point: 27°   Wind: 8mph
Humidity: 62%   Direction: 10°N
Pressure: 30.16"   Gusts: NA
Location:  35.77°N, 83.98°W
Report Text: KTYS 200153Z 01007KT 10SM OVC180 04/M03 A3016 RMK AO2 SLP218 T00391028
Loading
Personal Weather Stations






























Interactive Weather Map New forecast layout! Learn more

10-Day Weather Forecast

Advertisements
Track Severe Weather on mobile